createdAt,value
2018-04-06T00:01:46.366Z,68.67
2018-04-06T00:04:13.780Z,68.83
2018-04-06T00:06:41.181Z,68.75
2018-04-06T00:09:08.598Z,68.81
2018-04-06T00:11:36.011Z,68.77
2018-04-06T00:14:03.410Z,68.77
2018-04-06T00:16:30.833Z,68.93
2018-04-06T00:18:58.221Z,69.28
2018-04-06T00:21:25.666Z,69.20
2018-04-06T00:23:53.053Z,69.17
2018-04-06T00:26:20.819Z,69.09
2018-04-06T00:28:48.230Z,69.44
2018-04-06T00:31:15.642Z,69.09
2018-04-06T00:33:43.161Z,69.27
2018-04-06T00:36:10.583Z,69.09
2018-04-06T00:38:38.030Z,69.31
2018-04-06T00:41:06.353Z,69.56
2018-04-06T00:43:33.843Z,69.61
2018-04-06T00:46:01.381Z,69.57
2018-04-06T00:48:28.928Z,69.86
2018-04-06T00:50:56.438Z,69.83
2018-04-06T00:53:35.751Z,70.39
2018-04-06T00:56:03.263Z,70.34
2018-04-06T00:58:30.669Z,70.36
2018-04-06T01:00:58.091Z,70.40
2018-04-06T01:03:25.481Z,70.57
2018-04-06T01:05:52.889Z,70.73
2018-04-06T01:08:20.320Z,71.58
2018-04-06T01:10:47.718Z,71.21
2018-04-06T01:13:15.133Z,71.46
2018-04-06T01:15:42.546Z,71.73
2018-04-06T01:18:09.964Z,72.02
2018-04-06T01:20:37.370Z,72.03
2018-04-06T01:23:04.786Z,72.27
2018-04-06T01:25:32.174Z,72.25
2018-04-06T01:27:59.598Z,72.21
2018-04-06T01:30:26.994Z,72.50
2018-04-06T01:32:54.405Z,72.59
2018-04-06T01:35:21.806Z,72.51
2018-04-06T01:37:49.220Z,72.43
2018-04-06T01:40:16.608Z,72.17
2018-04-06T01:42:44.034Z,73.28
2018-04-06T01:45:11.429Z,72.95
2018-04-06T01:47:38.846Z,73.07
2018-04-06T01:50:06.241Z,72.92
2018-04-06T01:52:33.658Z,72.85
2018-04-06T01:55:01.062Z,73.13
2018-04-06T01:57:28.483Z,73.36
2018-04-06T01:59:55.890Z,73.40
2018-04-06T02:02:23.293Z,74.21
2018-04-06T02:04:50.695Z,74.28
2018-04-06T02:07:18.103Z,74.16
2018-04-06T02:09:45.511Z,74.63
2018-04-06T02:12:12.930Z,75.47
2018-04-06T02:14:40.333Z,75.13
2018-04-06T02:17:07.745Z,74.76
2018-04-06T02:19:35.154Z,74.88
2018-04-06T02:22:02.557Z,75.10
2018-04-06T02:24:30.036Z,74.70
2018-04-06T02:26:57.391Z,75.19
2018-04-06T02:29:24.790Z,75.25
2018-04-06T02:31:52.206Z,76.10
2018-04-06T02:34:19.607Z,75.42
2018-04-06T02:36:47.018Z,74.78
2018-04-06T02:39:14.414Z,74.71
2018-04-06T02:41:41.980Z,75.06
2018-04-06T02:44:09.404Z,75.08
2018-04-06T02:46:36.800Z,74.68
2018-04-06T02:49:04.222Z,75.40
2018-04-06T02:51:31.677Z,75.02
2018-04-06T02:53:59.121Z,74.82
2018-04-06T02:56:26.542Z,75.12
2018-04-06T02:58:53.955Z,74.63
2018-04-06T03:01:21.361Z,75.23
2018-04-06T03:03:49.129Z,75.32
2018-04-06T03:06:16.537Z,75.54
2018-04-06T03:08:43.938Z,76.22
2018-04-06T03:11:11.361Z,76.39
2018-04-06T03:13:38.805Z,76.59
2018-04-06T03:16:06.202Z,75.87
2018-04-06T03:18:33.617Z,75.69
2018-04-06T03:21:01.019Z,75.56
2018-04-06T03:23:28.433Z,75.58
2018-04-06T03:25:55.836Z,76.17
2018-04-06T03:28:23.249Z,75.56
2018-04-06T03:30:50.665Z,75.88
2018-04-06T03:33:18.076Z,76.22
2018-04-06T03:35:45.482Z,75.61
2018-04-06T03:38:12.902Z,75.64
2018-04-06T03:40:40.300Z,75.51
2018-04-06T03:43:07.722Z,75.63
2018-04-06T03:45:35.397Z,75.42
2018-04-06T03:48:02.802Z,75.31
2018-04-06T03:50:30.197Z,75.40
2018-04-06T03:52:57.641Z,75.83
2018-04-06T03:55:25.057Z,75.72
2018-04-06T03:57:52.454Z,76.09
2018-04-06T04:00:19.870Z,75.90
2018-04-06T04:02:47.268Z,76.43
2018-04-06T04:05:14.679Z,76.20
2018-04-06T04:07:42.077Z,76.36
2018-04-06T04:10:09.489Z,76.62
2018-04-06T04:12:36.898Z,76.98
2018-04-06T04:15:04.310Z,76.72
2018-04-06T04:17:31.705Z,76.63
2018-04-06T04:19:59.121Z,77.02
2018-04-06T04:22:26.530Z,77.00
2018-04-06T04:24:53.937Z,76.96
2018-04-06T04:27:21.346Z,76.65
2018-04-06T04:29:48.765Z,77.01
2018-04-06T04:32:16.170Z,76.85
2018-04-06T04:34:44.180Z,77.01
2018-04-06T04:37:11.586Z,76.94
2018-04-06T04:39:38.985Z,77.08
2018-04-06T04:42:06.400Z,77.56
2018-04-06T04:44:33.849Z,77.02
2018-04-06T04:47:01.245Z,77.32
2018-04-06T04:49:28.649Z,77.17
2018-04-06T04:51:56.053Z,77.62
2018-04-06T04:54:23.480Z,77.57
2018-04-06T04:56:50.880Z,78.13
2018-04-06T04:59:18.306Z,77.94
2018-04-06T05:01:45.715Z,78.19
2018-04-06T05:04:13.119Z,78.51
2018-04-06T05:06:40.545Z,78.46
2018-04-06T05:09:07.965Z,78.29
2018-04-06T05:11:35.382Z,78.16
2018-04-06T05:14:02.778Z,77.56
2018-04-06T05:16:30.196Z,77.33
2018-04-06T05:18:57.607Z,76.91
2018-04-06T05:21:25.026Z,76.52
2018-04-06T05:23:52.430Z,76.18
2018-04-06T05:26:19.843Z,75.74
2018-04-06T05:28:47.244Z,75.66
2018-04-06T05:31:14.661Z,75.19
2018-04-06T05:33:42.065Z,74.93
2018-04-06T05:36:09.497Z,74.32
2018-04-06T05:38:36.907Z,73.94
2018-04-06T05:41:04.326Z,73.66
2018-04-06T05:43:31.733Z,72.12
2018-04-06T05:45:59.155Z,71.13
2018-04-06T05:48:26.566Z,70.26
2018-04-06T05:50:53.980Z,68.52
2018-04-06T05:53:21.442Z,67.68
2018-04-06T05:55:48.902Z,64.77
2018-04-06T05:58:16.334Z,63.58
2018-04-06T06:00:43.724Z,63.17
2018-04-06T06:03:11.126Z,60.61
2018-04-06T06:05:38.578Z,59.84
2018-04-06T06:08:05.980Z,57.88
2018-04-06T06:10:33.394Z,57.72
2018-04-06T06:13:00.798Z,57.51
2018-04-06T06:15:28.213Z,53.66
2018-04-06T06:17:55.618Z,53.73
2018-04-06T06:20:23.029Z,53.41
2018-04-06T06:22:50.429Z,54.27
2018-04-06T06:25:17.843Z,51.50
2018-04-06T06:27:45.246Z,51.71
2018-04-06T06:30:12.653Z,51.45
2018-04-06T06:32:40.098Z,51.74
2018-04-06T06:35:07.526Z,51.52
2018-04-06T06:37:34.934Z,51.71
2018-04-06T06:40:02.366Z,49.22
2018-04-06T06:42:29.780Z,49.94
2018-04-06T06:44:57.531Z,49.34
2018-04-06T06:47:24.938Z,48.66
2018-04-06T06:49:52.351Z,44.60
2018-04-06T06:52:20.136Z,46.24
2018-04-06T06:54:47.543Z,43.03
2018-04-06T06:57:14.949Z,42.93
2018-04-06T06:59:42.368Z,43.36
2018-04-06T07:02:09.790Z,44.37
2018-04-06T07:04:37.202Z,42.89
2018-04-06T07:07:04.629Z,43.83
2018-04-06T07:09:32.041Z,42.21
2018-04-06T07:11:59.474Z,43.21
2018-04-06T07:14:26.930Z,43.06
2018-04-06T07:16:54.350Z,41.89
2018-04-06T07:19:21.766Z,41.36
2018-04-06T07:21:49.189Z,41.97
2018-04-06T07:24:16.612Z,41.16
2018-04-06T07:26:44.048Z,41.20
2018-04-06T07:29:11.459Z,41.78
2018-04-06T07:31:38.872Z,40.86
2018-04-06T07:34:06.273Z,41.22
2018-04-06T07:36:33.686Z,40.16
2018-04-06T07:39:01.110Z,40.80
2018-04-06T07:41:28.541Z,41.35
2018-04-06T07:43:55.952Z,42.61
2018-04-06T07:46:23.364Z,41.29
2018-04-06T07:48:50.793Z,41.61
2018-04-06T07:51:18.208Z,41.31
2018-04-06T07:53:45.622Z,41.11
2018-04-06T07:56:13.026Z,41.05
2018-04-06T07:58:40.441Z,40.57
2018-04-06T08:01:07.850Z,41.00
2018-04-06T08:03:35.265Z,40.39
2018-04-06T08:06:02.678Z,40.72
2018-04-06T08:08:30.087Z,40.16
2018-04-06T08:10:57.498Z,40.99
2018-04-06T08:13:24.979Z,41.48
2018-04-06T08:15:52.333Z,41.11
2018-04-06T08:18:19.756Z,41.52
2018-04-06T08:20:47.161Z,41.29
2018-04-06T08:23:14.690Z,41.06
2018-04-06T08:25:42.153Z,41.89
2018-04-06T08:28:09.562Z,40.28
2018-04-06T08:30:37.006Z,41.62
2018-04-06T08:33:04.427Z,41.78
2018-04-06T08:35:31.829Z,41.13
2018-04-06T08:37:59.258Z,42.15
2018-04-06T08:40:26.662Z,41.68
2018-04-06T08:42:54.085Z,41.37
2018-04-06T08:45:21.489Z,40.26
2018-04-06T08:47:48.944Z,39.61
2018-04-06T08:50:16.346Z,39.80
2018-04-06T08:52:43.769Z,39.21
2018-04-06T08:55:11.170Z,39.94
2018-04-06T08:57:38.585Z,39.35
2018-04-06T09:00:05.998Z,40.29
2018-04-06T09:02:33.416Z,40.57
2018-04-06T09:05:00.817Z,40.87
2018-04-06T09:07:28.285Z,39.85
2018-04-06T09:09:55.679Z,39.08
2018-04-06T09:12:23.093Z,39.69
2018-04-06T09:14:50.505Z,38.45
2018-04-06T09:17:17.942Z,38.76
2018-04-06T09:19:45.346Z,37.63
2018-04-06T09:22:12.772Z,37.62
2018-04-06T09:24:40.171Z,38.09
2018-04-06T09:27:07.594Z,37.16
2018-04-06T09:29:35.002Z,38.13
2018-04-06T09:32:02.441Z,37.93
2018-04-06T09:34:29.881Z,38.16
2018-04-06T09:36:57.413Z,38.65
2018-04-06T09:39:24.822Z,39.60
2018-04-06T09:41:52.276Z,40.83
2018-04-06T09:44:19.742Z,41.71
2018-04-06T09:46:47.150Z,42.03
2018-04-06T09:49:14.562Z,42.39
2018-04-06T09:51:41.998Z,42.20
2018-04-06T09:54:09.438Z,40.45
2018-04-06T09:56:36.837Z,40.87
2018-04-06T09:59:04.250Z,41.04
2018-04-06T10:01:35.649Z,40.34
2018-04-06T10:04:03.057Z,40.49
2018-04-06T10:06:30.561Z,40.54
2018-04-06T10:08:57.981Z,40.69
2018-04-06T10:11:25.401Z,39.85
2018-04-06T10:13:52.805Z,40.38
2018-04-06T10:16:20.246Z,39.93
2018-04-06T10:18:47.634Z,39.36
2018-04-06T10:21:15.051Z,39.84
2018-04-06T10:23:42.454Z,38.64
2018-04-06T10:26:09.893Z,38.22
2018-04-06T10:28:37.307Z,38.58
2018-04-06T10:31:04.722Z,39.07
2018-04-06T10:33:32.125Z,39.13
2018-04-06T10:35:59.541Z,39.13
2018-04-06T10:38:26.943Z,38.06
2018-04-06T10:40:54.373Z,35.78
2018-04-06T10:43:21.777Z,35.88
2018-04-06T10:45:49.197Z,36.43
2018-04-06T10:48:16.660Z,35.24
2018-04-06T10:50:44.067Z,35.34
2018-04-06T10:53:11.482Z,33.10
2018-04-06T10:55:38.888Z,33.67
2018-04-06T10:58:06.305Z,29.94
2018-04-06T11:00:33.697Z,27.48
2018-04-06T11:03:01.238Z,29.02
2018-04-06T11:05:28.659Z,28.84
2018-04-06T11:07:56.067Z,36.57
2018-04-06T11:10:23.490Z,37.18
2018-04-06T11:12:50.917Z,38.44
2018-04-06T11:15:18.413Z,37.60
2018-04-06T11:17:45.941Z,37.47
2018-04-06T11:20:13.409Z,37.04
2018-04-06T11:22:40.835Z,37.49
2018-04-06T11:25:08.864Z,36.77
2018-04-06T11:27:36.314Z,36.16
2018-04-06T11:30:03.800Z,34.91
2018-04-06T11:32:31.242Z,35.41
2018-04-06T11:34:58.676Z,34.28
2018-04-06T11:37:26.109Z,33.01
2018-04-06T11:39:53.620Z,33.51
2018-04-06T11:42:21.067Z,33.36
2018-04-06T11:44:49.293Z,33.16
2018-04-06T11:47:16.697Z,32.12
2018-04-06T11:49:44.132Z,32.06
2018-04-06T11:52:11.568Z,31.40
2018-04-06T11:54:39.032Z,31.34
2018-04-06T11:57:06.548Z,31.34
2018-04-06T11:59:33.989Z,32.70
2018-04-06T12:02:01.414Z,30.96
2018-04-06T12:04:29.958Z,31.10
2018-04-06T12:06:57.381Z,30.46
2018-04-06T12:09:24.788Z,31.56
2018-04-06T12:11:52.199Z,31.07
2018-04-06T12:14:19.600Z,31.28
2018-04-06T12:16:47.050Z,31.08
2018-04-06T12:19:14.529Z,31.52
2018-04-06T12:21:41.932Z,29.85
2018-04-06T12:24:09.492Z,30.13
2018-04-06T12:26:36.950Z,30.04
2018-04-06T12:29:04.369Z,29.84
2018-04-06T12:31:31.773Z,28.99
2018-04-06T12:33:59.210Z,29.96
2018-04-06T12:36:26.614Z,30.77
2018-04-06T12:38:54.269Z,28.97
2018-04-06T12:41:21.691Z,28.58
2018-04-06T12:43:49.281Z,28.75
2018-04-06T12:46:16.733Z,28.99
2018-04-06T12:48:44.651Z,29.78
2018-04-06T12:51:12.250Z,28.92
2018-04-06T12:53:39.739Z,29.11
2018-04-06T12:56:07.158Z,28.21
2018-04-06T12:58:34.578Z,28.16
2018-04-06T13:01:01.983Z,28.45
2018-04-06T13:03:29.489Z,28.03
2018-04-06T13:05:56.927Z,27.60
2018-04-06T13:08:24.322Z,27.25
2018-04-06T13:10:51.726Z,27.67
2018-04-06T13:13:19.142Z,27.20
2018-04-06T13:15:46.560Z,27.07
2018-04-06T13:18:13.956Z,28.19
2018-04-06T13:20:41.376Z,27.95
2018-04-06T13:23:08.770Z,28.56
2018-04-06T13:25:36.196Z,28.03
2018-04-06T13:28:03.590Z,27.98
2018-04-06T13:30:31.110Z,28.93
2018-04-06T13:32:58.505Z,29.24
2018-04-06T13:35:25.917Z,29.73
2018-04-06T13:37:53.350Z,29.06
2018-04-06T13:40:20.750Z,29.90
2018-04-06T13:42:48.175Z,29.76
2018-04-06T13:45:15.573Z,30.54
2018-04-06T13:47:43.002Z,29.52
2018-04-06T13:50:10.447Z,30.34
2018-04-06T13:52:37.942Z,29.83
2018-04-06T13:55:05.422Z,29.30
2018-04-06T13:57:32.938Z,29.50
2018-04-06T14:00:00.349Z,29.77
2018-04-06T14:02:27.767Z,29.55
2018-04-06T14:04:55.462Z,28.77
2018-04-06T14:07:23.000Z,29.48
2018-04-06T14:09:50.399Z,28.71
2018-04-06T14:12:17.793Z,27.97
2018-04-06T14:14:45.224Z,28.79
2018-04-06T14:17:12.638Z,28.98
2018-04-06T14:19:40.050Z,29.41
2018-04-06T14:22:07.482Z,28.62
2018-04-06T14:24:34.965Z,28.41
2018-04-06T14:27:02.370Z,28.64
2018-04-06T14:29:29.790Z,29.07
2018-04-06T14:31:57.206Z,27.78
2018-04-06T14:34:24.769Z,27.59
2018-04-06T14:36:52.161Z,27.75
2018-04-06T14:39:19.586Z,26.89
2018-04-06T14:41:46.999Z,27.23
2018-04-06T14:44:14.472Z,27.52
2018-04-06T14:46:41.905Z,27.02
2018-04-06T14:49:09.613Z,26.96
2018-04-06T14:51:37.086Z,26.66
2018-04-06T14:54:04.485Z,26.54
2018-04-06T14:56:31.908Z,26.86
2018-04-06T14:58:59.329Z,27.52
2018-04-06T15:01:26.750Z,26.94
2018-04-06T15:03:54.156Z,26.64
2018-04-06T15:06:21.606Z,26.84
2018-04-06T15:08:50.040Z,26.97
2018-04-06T15:11:17.585Z,27.31
2018-04-06T15:13:45.022Z,26.97
2018-04-06T15:16:12.453Z,25.80
2018-04-06T15:18:39.892Z,26.14
2018-04-06T15:21:07.869Z,26.19
2018-04-06T15:23:35.383Z,25.95
2018-04-06T15:26:02.901Z,26.53
2018-04-06T15:28:30.379Z,25.88
2018-04-06T15:30:57.815Z,26.48
2018-04-06T15:33:25.212Z,26.65
2018-04-06T15:35:52.621Z,26.24
2018-04-06T15:38:20.038Z,25.72
2018-04-06T15:40:47.582Z,26.25
2018-04-06T15:43:15.001Z,26.07
2018-04-06T15:45:42.408Z,26.05
2018-04-06T15:48:09.834Z,25.45
2018-04-06T15:50:37.287Z,25.69
2018-04-06T15:53:04.715Z,26.55
2018-04-06T15:55:32.120Z,26.54
2018-04-06T15:57:59.561Z,27.11
2018-04-06T16:00:26.957Z,26.93
2018-04-06T16:02:54.375Z,27.37
2018-04-06T16:05:21.773Z,27.55
2018-04-06T16:07:49.196Z,26.96
2018-04-06T16:10:16.620Z,26.96
2018-04-06T16:12:44.031Z,26.65
2018-04-06T16:15:11.438Z,26.24
2018-04-06T16:17:38.852Z,26.88
2018-04-06T16:20:06.257Z,27.73
2018-04-06T16:22:33.677Z,27.96
2018-04-06T16:25:01.084Z,28.70
2018-04-06T16:27:28.508Z,28.47
2018-04-06T16:29:55.901Z,27.94
2018-04-06T16:32:23.305Z,28.86
2018-04-06T16:34:50.806Z,28.78
2018-04-06T16:37:18.215Z,29.46
2018-04-06T16:39:45.626Z,29.25
2018-04-06T16:42:13.066Z,29.66
2018-04-06T16:44:40.445Z,29.66
2018-04-06T16:47:07.848Z,30.25
2018-04-06T16:49:35.261Z,29.86
2018-04-06T16:52:02.669Z,30.36
2018-04-06T16:54:30.085Z,30.49
2018-04-06T16:56:57.581Z,30.35
2018-04-06T16:59:25.001Z,30.79
2018-04-06T17:04:42.650Z,31.50
2018-04-06T17:07:10.060Z,31.25
2018-04-06T17:09:37.477Z,31.49
2018-04-06T17:12:04.885Z,31.76
2018-04-06T17:14:32.305Z,31.77
2018-04-06T17:16:59.709Z,31.90
2018-04-06T17:19:27.135Z,32.36
2018-04-06T17:21:54.564Z,32.71
2018-04-06T17:24:21.981Z,32.84
2018-04-06T17:26:49.385Z,32.79
2018-04-06T17:29:16.940Z,33.09
2018-04-06T17:31:44.334Z,33.09
2018-04-06T17:34:11.857Z,33.04
2018-04-06T17:36:39.266Z,33.30
2018-04-06T17:39:06.662Z,33.49
2018-04-06T17:41:34.078Z,33.93
2018-04-06T17:44:01.561Z,33.65
2018-04-06T17:46:28.974Z,33.80
2018-04-06T17:48:56.377Z,34.06
2018-04-06T17:51:23.793Z,33.79
2018-04-06T17:53:51.207Z,33.92
2018-04-06T17:56:18.622Z,34.07
2018-04-06T17:58:46.033Z,34.36
2018-04-06T18:01:13.444Z,34.59
2018-04-06T18:03:40.853Z,34.67
2018-04-06T18:06:08.278Z,34.95
2018-04-06T18:08:35.681Z,34.93
2018-04-06T18:11:03.085Z,34.91
2018-04-06T18:13:30.512Z,35.20
2018-04-06T18:15:57.925Z,35.15
2018-04-06T18:18:25.329Z,35.45
2018-04-06T18:20:52.755Z,35.41
2018-04-06T18:23:20.150Z,35.69
2018-04-06T18:25:47.601Z,35.59
2018-04-06T18:28:15.029Z,35.93
2018-04-06T18:30:42.437Z,36.11
2018-04-06T18:33:09.853Z,36.16
2018-04-06T18:35:37.258Z,36.17
2018-04-06T18:38:04.686Z,36.32
2018-04-06T18:40:32.087Z,36.55
2018-04-06T18:42:59.513Z,36.75
2018-04-06T18:45:26.913Z,37.00
2018-04-06T18:47:54.330Z,37.45
2018-04-06T18:50:21.754Z,37.42
2018-04-06T18:52:49.197Z,37.91
2018-04-06T18:55:16.593Z,38.03
2018-04-06T18:57:44.025Z,38.28
2018-04-06T19:00:11.425Z,38.15
2018-04-06T19:02:38.845Z,38.28
2018-04-06T19:05:06.250Z,38.61
2018-04-06T19:07:33.910Z,38.93
2018-04-06T19:10:01.325Z,39.08
2018-04-06T19:12:28.741Z,39.34
2018-04-06T19:14:56.150Z,39.63
2018-04-06T19:17:23.575Z,39.71
2018-04-06T19:19:50.977Z,40.12
2018-04-06T19:22:18.496Z,40.47
2018-04-06T19:24:45.901Z,40.46
2018-04-06T19:27:13.354Z,40.67
2018-04-06T19:29:40.984Z,40.81
2018-04-06T19:32:08.437Z,41.13
2018-04-06T19:34:35.927Z,41.25
2018-04-06T19:37:03.506Z,41.24
2018-04-06T19:39:30.908Z,41.35
2018-04-06T19:41:58.318Z,41.82
2018-04-06T19:44:25.720Z,41.67
2018-04-06T19:46:53.142Z,42.00
2018-04-06T19:49:20.548Z,42.14
2018-04-06T19:51:47.972Z,42.20
2018-04-06T19:54:15.402Z,42.31
2018-04-06T19:56:42.879Z,42.43
2018-04-06T19:59:10.283Z,42.35
2018-04-06T20:01:37.844Z,42.75
2018-04-06T20:04:05.247Z,42.65
2018-04-06T20:06:32.794Z,42.88
2018-04-06T20:09:00.257Z,42.99
2018-04-06T20:11:27.612Z,43.00
2018-04-06T20:13:55.033Z,43.22
2018-04-06T20:16:22.447Z,43.29
2018-04-06T20:18:49.946Z,43.37
2018-04-06T20:21:17.348Z,43.75
2018-04-06T20:23:44.810Z,43.39
2018-04-06T20:26:12.306Z,43.45
2018-04-06T20:28:39.750Z,43.43
2018-04-06T20:31:07.173Z,43.53
2018-04-06T20:33:34.590Z,43.70
2018-04-06T20:36:02.007Z,43.56
2018-04-06T20:38:29.431Z,43.74
2018-04-06T20:40:56.875Z,43.80
2018-04-06T20:43:24.332Z,43.82
2018-04-06T20:45:51.741Z,43.77
2018-04-06T20:48:19.197Z,43.83
2018-04-06T20:50:46.603Z,43.99
2018-04-06T20:53:14.022Z,43.82
2018-04-06T20:55:41.444Z,43.56
2018-04-06T20:58:08.865Z,43.97
2018-04-06T21:00:36.301Z,43.84
2018-04-06T21:03:03.706Z,43.93
2018-04-06T21:05:31.109Z,44.11
2018-04-06T21:07:58.528Z,43.73
2018-04-06T21:10:25.934Z,43.92
2018-04-06T21:12:53.364Z,43.88
2018-04-06T21:15:20.784Z,44.09
2018-04-06T21:17:48.195Z,44.00
2018-04-06T21:20:15.593Z,43.83
2018-04-06T21:22:43.437Z,43.68
2018-04-06T21:25:10.877Z,43.63
2018-04-06T21:27:38.294Z,43.88
2018-04-06T21:30:05.719Z,43.65
2018-04-06T21:32:33.138Z,43.72
2018-04-06T21:35:00.548Z,43.70
2018-04-06T21:37:28.241Z,43.47
2018-04-06T21:39:55.673Z,43.88
2018-04-06T21:42:23.085Z,43.81
2018-04-06T21:44:50.558Z,44.01
2018-04-06T21:47:18.066Z,43.97
2018-04-06T21:49:45.608Z,44.00
2018-04-06T21:52:13.307Z,44.16
2018-04-06T21:54:40.823Z,44.41
2018-04-06T21:57:08.278Z,44.58
2018-04-06T21:59:35.748Z,44.42
2018-04-06T22:02:03.170Z,44.51
2018-04-06T22:04:30.613Z,44.50
2018-04-06T22:06:58.019Z,44.66
2018-04-06T22:09:27.121Z,45.01
2018-04-06T22:11:54.542Z,44.86
2018-04-06T22:14:21.978Z,45.06
2018-04-06T22:16:49.384Z,45.26
2018-04-06T22:19:17.064Z,45.48
2018-04-06T22:21:44.501Z,45.50
2018-04-06T22:24:11.986Z,45.87
2018-04-06T22:26:39.445Z,45.93
2018-04-06T22:29:06.908Z,45.89
2018-04-06T22:31:34.379Z,45.97
2018-04-06T22:34:01.931Z,46.14
2018-04-06T22:36:29.364Z,46.26
2018-04-06T22:38:56.790Z,46.30
2018-04-06T22:41:24.195Z,46.36
2018-04-06T22:43:51.610Z,46.31
2018-04-06T22:46:19.009Z,46.74
2018-04-06T22:48:46.430Z,46.43
2018-04-06T22:51:13.848Z,46.75
2018-04-06T22:53:41.265Z,46.77
2018-04-06T22:56:08.673Z,47.02
2018-04-06T22:58:36.190Z,46.99
2018-04-06T23:01:03.704Z,47.08
2018-04-06T23:03:31.097Z,47.22
2018-04-06T23:05:58.581Z,47.20
2018-04-06T23:08:26.765Z,47.33
2018-04-06T23:10:54.214Z,47.49
2018-04-06T23:13:21.617Z,47.68
2018-04-06T23:15:49.045Z,47.79
2018-04-06T23:18:16.447Z,47.98
2018-04-06T23:20:44.786Z,47.98
2018-04-06T23:23:12.672Z,48.01
2018-04-06T23:25:40.886Z,48.15
2018-04-06T23:28:08.289Z,48.05
2018-04-06T23:30:35.790Z,48.20
2018-04-06T23:33:03.188Z,48.08
2018-04-06T23:35:30.665Z,48.08
2018-04-06T23:37:58.117Z,48.27
2018-04-06T23:40:25.516Z,48.46
2018-04-06T23:42:52.933Z,48.30
2018-04-06T23:45:20.342Z,48.32
2018-04-06T23:47:47.741Z,48.56
2018-04-06T23:50:15.182Z,48.55
2018-04-06T23:52:42.750Z,48.76
2018-04-06T23:55:10.155Z,48.78
2018-04-06T23:57:37.587Z,48.81
